createdAt,value
2019-05-20T00:01:41.926Z,15.40
2019-05-20T00:03:44.715Z,15.40
2019-05-20T00:05:47.707Z,15.40
2019-05-20T00:07:50.564Z,15.30
2019-05-20T00:09:53.351Z,15.30
2019-05-20T00:11:56.168Z,15.30
2019-05-20T00:13:59.010Z,15.30
2019-05-20T00:16:01.817Z,15.30
2019-05-20T00:18:04.617Z,15.30
2019-05-20T00:20:07.600Z,15.30
2019-05-20T00:22:10.425Z,15.30
2019-05-20T00:24:13.213Z,15.20
2019-05-20T00:26:15.989Z,15.20
2019-05-20T00:28:18.818Z,15.20
2019-05-20T00:30:21.605Z,15.20
2019-05-20T00:32:40.007Z,15.20
2019-05-20T00:34:35.033Z,15.20
2019-05-20T00:36:33.304Z,15.20
2019-05-20T00:38:36.166Z,15.10
2019-05-20T00:40:38.964Z,15.10
2019-05-20T00:42:41.744Z,15.10
2019-05-20T00:44:44.560Z,15.00
2019-05-20T00:46:47.355Z,15.00
2019-05-20T00:48:50.180Z,15.00
2019-05-20T00:50:52.998Z,15.00
2019-05-20T00:52:56.014Z,14.90
2019-05-20T00:54:58.838Z,14.90
2019-05-20T00:57:01.639Z,14.90
2019-05-20T00:59:05.014Z,14.90
2019-05-20T01:01:08.164Z,14.80
2019-05-20T01:03:10.985Z,14.80
2019-05-20T01:05:13.772Z,14.80
2019-05-20T01:07:16.580Z,14.80
2019-05-20T01:09:19.385Z,14.70
2019-05-20T01:11:22.181Z,14.70
2019-05-20T01:13:25.003Z,14.70
2019-05-20T01:15:27.785Z,14.60
2019-05-20T01:17:30.620Z,14.60
2019-05-20T01:19:33.423Z,14.60
2019-05-20T01:21:36.273Z,14.50
2019-05-20T01:23:39.082Z,14.50
2019-05-20T01:25:41.862Z,14.50
2019-05-20T01:27:44.656Z,14.50
2019-05-20T01:29:47.461Z,14.50
2019-05-20T01:31:50.253Z,14.50
2019-05-20T01:33:53.077Z,14.40
2019-05-20T01:35:55.857Z,14.40
2019-05-20T01:37:58.649Z,14.40
2019-05-20T01:40:01.536Z,14.40
2019-05-20T01:42:04.413Z,14.40
2019-05-20T01:44:07.277Z,14.40
2019-05-20T01:46:10.106Z,14.40
2019-05-20T01:48:13.168Z,14.40
2019-05-20T01:50:16.048Z,14.40
2019-05-20T01:52:18.943Z,14.40
2019-05-20T01:54:21.808Z,14.40
2019-05-20T01:56:24.615Z,14.30
2019-05-20T01:58:27.404Z,14.30
2019-05-20T02:00:30.218Z,14.30
2019-05-20T02:02:32.999Z,14.30
2019-05-20T02:04:35.796Z,14.30
2019-05-20T02:06:38.625Z,14.30
2019-05-20T02:08:41.418Z,14.30
2019-05-20T02:10:44.207Z,14.20
2019-05-20T02:12:47.088Z,14.20
2019-05-20T02:15:03.541Z,14.20
2019-05-20T02:17:06.369Z,14.20
2019-05-20T02:19:09.218Z,14.20
2019-05-20T02:21:12.076Z,14.20
2019-05-20T02:23:17.849Z,14.20
2019-05-20T02:25:20.705Z,14.10
2019-05-20T02:27:23.582Z,14.10
2019-05-20T02:29:26.313Z,14.00
2019-05-20T02:31:29.110Z,13.90
2019-05-20T02:33:49.858Z,13.80
2019-05-20T02:35:36.369Z,13.90
2019-05-20T02:37:39.171Z,13.90
2019-05-20T02:39:41.957Z,13.90
2019-05-20T02:41:44.781Z,14.00
2019-05-20T02:43:47.656Z,14.00
2019-05-20T02:45:50.505Z,14.00
2019-05-20T02:47:53.302Z,14.10
2019-05-20T02:49:56.090Z,14.00
2019-05-20T02:51:58.887Z,14.00
2019-05-20T02:54:01.756Z,14.00
2019-05-20T02:56:04.609Z,14.00
2019-05-20T02:58:07.499Z,13.90
2019-05-20T03:00:10.606Z,13.90
2019-05-20T03:02:13.406Z,13.90
2019-05-20T03:04:16.290Z,13.90
2019-05-20T03:06:19.089Z,13.80
2019-05-20T03:08:21.886Z,13.80
2019-05-20T03:10:24.688Z,13.90
2019-05-20T03:12:27.544Z,13.90
2019-05-20T03:14:30.381Z,13.90
2019-05-20T03:16:33.153Z,13.90
2019-05-20T03:18:35.977Z,14.00
2019-05-20T03:20:38.792Z,13.90
2019-05-20T03:22:41.744Z,14.00
2019-05-20T03:24:44.571Z,14.00
2019-05-20T03:26:47.416Z,14.00
2019-05-20T03:28:50.212Z,14.00
2019-05-20T03:30:53.018Z,14.00
2019-05-20T03:32:55.820Z,14.00
2019-05-20T03:35:00.826Z,14.00
2019-05-20T03:37:03.099Z,14.00
2019-05-20T03:39:06.253Z,14.00
2019-05-20T03:41:09.079Z,14.10
2019-05-20T03:43:11.862Z,14.10
2019-05-20T03:45:14.920Z,14.10
2019-05-20T03:47:17.728Z,14.20
2019-05-20T03:49:20.520Z,14.30
2019-05-20T03:51:23.318Z,14.20
2019-05-20T03:53:26.123Z,14.30
2019-05-20T03:55:28.912Z,14.40
2019-05-20T03:57:31.709Z,14.40
2019-05-20T03:59:34.504Z,14.50
2019-05-20T04:01:37.315Z,14.50
2019-05-20T04:03:40.097Z,14.50
2019-05-20T04:05:43.162Z,14.60
2019-05-20T04:07:45.981Z,14.60
2019-05-20T04:09:48.767Z,14.70
2019-05-20T04:11:51.587Z,14.70
2019-05-20T04:13:54.370Z,14.80
2019-05-20T04:15:57.194Z,14.80
2019-05-20T04:17:59.985Z,14.80
2019-05-20T04:20:02.857Z,14.80
2019-05-20T04:22:05.671Z,14.90
2019-05-20T04:24:08.584Z,14.90
2019-05-20T04:26:11.429Z,14.90
2019-05-20T04:28:14.342Z,14.90
2019-05-20T04:30:19.008Z,14.90
2019-05-20T04:32:21.641Z,15.00
2019-05-20T04:34:24.439Z,15.10
2019-05-20T04:36:27.242Z,15.10
2019-05-20T04:38:30.021Z,15.10
2019-05-20T04:40:32.917Z,15.20
2019-05-20T04:42:35.717Z,15.20
2019-05-20T04:44:38.513Z,15.10
2019-05-20T04:46:41.382Z,15.10
2019-05-20T04:48:44.168Z,15.10
2019-05-20T04:50:47.070Z,15.20
2019-05-20T04:52:49.792Z,15.20
2019-05-20T04:54:52.599Z,15.30
2019-05-20T04:56:55.444Z,15.30
2019-05-20T04:58:58.219Z,15.30
2019-05-20T05:01:01.002Z,15.50
2019-05-20T05:03:03.902Z,15.50
2019-05-20T05:05:07.161Z,15.70
2019-05-20T05:07:10.085Z,15.80
2019-05-20T05:09:15.604Z,15.90
2019-05-20T05:11:17.593Z,15.90
2019-05-20T05:13:20.495Z,16.00
2019-05-20T05:15:23.264Z,16.00
2019-05-20T05:17:26.080Z,16.00
2019-05-20T05:19:28.941Z,16.10
2019-05-20T05:21:31.769Z,16.20
2019-05-20T05:23:34.563Z,16.20
2019-05-20T05:25:37.519Z,16.20
2019-05-20T05:27:40.313Z,16.30
2019-05-20T05:29:43.173Z,16.30
2019-05-20T05:31:46.001Z,16.30
2019-05-20T05:33:48.811Z,16.40
2019-05-20T05:35:53.552Z,16.40
2019-05-20T05:37:56.110Z,16.50
2019-05-20T05:39:58.856Z,16.50
2019-05-20T05:42:01.651Z,16.60
2019-05-20T05:44:04.653Z,16.60
2019-05-20T05:46:07.440Z,16.60
2019-05-20T05:48:10.291Z,16.70
2019-05-20T05:50:13.393Z,16.70
2019-05-20T05:52:16.184Z,16.70
2019-05-20T05:54:19.038Z,16.60
2019-05-20T05:56:21.947Z,16.60
2019-05-20T05:58:24.731Z,16.60
2019-05-20T06:00:27.799Z,16.50
2019-05-20T06:02:30.664Z,16.50
2019-05-20T06:04:33.481Z,16.40
2019-05-20T06:06:36.274Z,16.40
2019-05-20T06:08:39.110Z,16.40
2019-05-20T06:10:41.892Z,16.30
2019-05-20T06:12:44.764Z,16.30
2019-05-20T06:14:47.586Z,16.30
2019-05-20T06:16:50.407Z,16.30
2019-05-20T06:18:53.196Z,16.30
2019-05-20T06:20:55.994Z,16.40
2019-05-20T06:22:58.859Z,16.40
2019-05-20T06:25:01.761Z,16.40
2019-05-20T06:27:04.553Z,16.50
2019-05-20T06:29:07.364Z,16.60
2019-05-20T06:31:10.187Z,16.70
2019-05-20T06:33:13.043Z,16.70
2019-05-20T06:35:16.008Z,16.80
2019-05-20T06:37:20.521Z,17.00
2019-05-20T06:39:23.305Z,17.00
2019-05-20T06:41:26.143Z,17.00
2019-05-20T06:43:28.986Z,16.90
2019-05-20T06:45:31.794Z,16.90
2019-05-20T06:47:34.674Z,16.90
2019-05-20T06:49:37.468Z,16.90
2019-05-20T06:51:40.282Z,17.00
2019-05-20T06:53:43.086Z,17.00
2019-05-20T06:55:45.905Z,17.00
2019-05-20T06:57:48.769Z,16.90
2019-05-20T06:59:51.550Z,17.00
2019-05-20T07:01:54.551Z,17.00
2019-05-20T07:03:57.486Z,17.10
2019-05-20T07:06:00.260Z,17.20
2019-05-20T07:08:03.215Z,17.20
2019-05-20T07:10:08.906Z,17.20
2019-05-20T07:12:11.742Z,17.20
2019-05-20T07:14:14.652Z,17.20
2019-05-20T07:16:17.607Z,17.20
2019-05-20T07:18:20.393Z,17.10
2019-05-20T07:20:23.226Z,17.20
2019-05-20T07:22:26.003Z,17.20
2019-05-20T07:24:28.865Z,17.20
2019-05-20T07:26:31.655Z,17.10
2019-05-20T07:28:34.544Z,17.20
2019-05-20T07:30:37.442Z,17.20
2019-05-20T07:32:40.250Z,17.30
2019-05-20T07:34:43.126Z,17.40
2019-05-20T07:37:01.465Z,17.40
2019-05-20T07:38:50.394Z,17.50
2019-05-20T07:40:53.196Z,17.50
2019-05-20T07:42:56.056Z,17.60
2019-05-20T07:44:58.835Z,17.60
2019-05-20T07:47:01.775Z,17.70
2019-05-20T07:49:04.917Z,17.80
2019-05-20T07:51:08.491Z,17.80
2019-05-20T07:53:11.869Z,17.80
2019-05-20T07:55:14.745Z,17.80
2019-05-20T07:57:18.509Z,17.80
2019-05-20T07:59:22.837Z,17.70
2019-05-20T08:01:25.730Z,17.70
2019-05-20T08:03:28.520Z,17.70
2019-05-20T08:05:31.374Z,17.70
2019-05-20T08:07:50.675Z,17.70
2019-05-20T08:09:45.244Z,17.70
2019-05-20T08:11:44.093Z,17.80
2019-05-20T08:13:46.945Z,17.90
2019-05-20T08:15:49.748Z,18.00
2019-05-20T08:17:52.626Z,18.00
2019-05-20T08:19:55.519Z,18.00
2019-05-20T08:21:58.339Z,18.00
2019-05-20T08:24:01.172Z,18.00
2019-05-20T08:26:04.071Z,18.00
2019-05-20T08:28:06.879Z,18.00
2019-05-20T08:30:13.825Z,18.10
2019-05-20T08:32:14.509Z,18.10
2019-05-20T08:34:17.318Z,18.10
2019-05-20T08:36:20.113Z,18.10
2019-05-20T08:38:23.311Z,18.10
2019-05-20T08:40:26.255Z,18.10
2019-05-20T08:42:29.088Z,18.20
2019-05-20T08:44:31.877Z,18.40
2019-05-20T08:46:34.729Z,18.60
2019-05-20T08:48:37.632Z,18.80
2019-05-20T08:50:40.430Z,19.10
2019-05-20T08:52:43.320Z,19.30
2019-05-20T08:54:46.178Z,19.30
2019-05-20T08:56:49.458Z,19.30
2019-05-20T08:58:52.594Z,19.10
2019-05-20T09:00:55.326Z,19.00
2019-05-20T09:02:58.208Z,18.80
2019-05-20T09:05:01.126Z,18.70
2019-05-20T09:07:04.037Z,18.60
2019-05-20T09:09:07.298Z,18.60
2019-05-20T09:11:10.085Z,18.50
2019-05-20T09:13:12.988Z,18.40
2019-05-20T09:15:17.051Z,18.40
2019-05-20T09:17:19.872Z,18.30
2019-05-20T09:19:22.668Z,18.20
2019-05-20T09:21:25.511Z,18.20
2019-05-20T09:23:28.389Z,18.20
2019-05-20T09:25:32.098Z,18.20
2019-05-20T09:27:34.973Z,18.20
2019-05-20T09:29:38.217Z,18.20
2019-05-20T09:31:41.259Z,18.20
2019-05-20T09:33:44.215Z,18.20
2019-05-20T09:35:47.062Z,18.10
2019-05-20T09:37:49.952Z,18.00
2019-05-20T09:39:53.154Z,17.90
2019-05-20T09:41:56.209Z,17.80
2019-05-20T09:43:59.064Z,17.80
2019-05-20T09:46:07.402Z,17.70
2019-05-20T09:48:06.424Z,17.80
2019-05-20T09:50:09.435Z,17.80
2019-05-20T09:52:12.405Z,17.70
2019-05-20T09:54:15.123Z,17.80
2019-05-20T09:56:17.937Z,17.90
2019-05-20T09:58:20.893Z,17.90
2019-05-20T10:00:24.032Z,17.90
2019-05-20T10:02:35.573Z,18.10
2019-05-20T10:04:31.337Z,18.20
2019-05-20T10:06:34.134Z,18.30
2019-05-20T10:08:41.126Z,18.50
2019-05-20T10:10:41.391Z,18.90
2019-05-20T10:12:46.621Z,19.20
2019-05-20T10:14:52.539Z,19.60
2019-05-20T10:16:53.094Z,19.90
2019-05-20T10:18:55.980Z,19.90
2019-05-20T10:20:58.904Z,19.90
2019-05-20T10:23:01.685Z,19.80
2019-05-20T10:25:08.623Z,19.60
2019-05-20T10:27:11.370Z,19.40
2019-05-20T10:29:14.207Z,19.30
2019-05-20T10:31:16.966Z,19.20
2019-05-20T10:33:19.760Z,19.10
2019-05-20T10:35:22.574Z,19.10
2019-05-20T10:37:25.413Z,19.20
2019-05-20T10:39:28.209Z,19.40
2019-05-20T10:41:31.019Z,19.60
2019-05-20T10:43:33.791Z,19.70
2019-05-20T10:45:36.619Z,19.70
2019-05-20T10:47:39.499Z,19.50
2019-05-20T10:49:42.373Z,19.50
2019-05-20T10:51:45.328Z,19.40
2019-05-20T10:53:48.097Z,19.40
2019-05-20T10:55:50.981Z,19.30
2019-05-20T10:57:53.777Z,19.30
2019-05-20T10:59:56.606Z,19.30
2019-05-20T11:01:59.416Z,19.40
2019-05-20T11:04:02.343Z,19.50
2019-05-20T11:06:05.483Z,19.70
2019-05-20T11:08:08.517Z,19.90
2019-05-20T11:10:11.577Z,20.00
2019-05-20T11:12:14.368Z,20.10
2019-05-20T11:14:17.194Z,20.10
2019-05-20T11:16:20.129Z,20.10
2019-05-20T11:18:22.991Z,20.10
2019-05-20T11:20:25.743Z,20.20
2019-05-20T11:22:28.538Z,20.40
2019-05-20T11:24:31.351Z,20.70
2019-05-20T11:26:34.166Z,20.80
2019-05-20T11:28:36.982Z,20.80
2019-05-20T11:30:39.788Z,20.70
2019-05-20T11:32:42.610Z,20.60
2019-05-20T11:34:45.472Z,20.50
2019-05-20T11:36:48.284Z,20.40
2019-05-20T11:38:51.065Z,20.30
2019-05-20T11:40:53.866Z,20.10
2019-05-20T11:42:56.684Z,20.00
2019-05-20T11:44:59.577Z,19.90
2019-05-20T11:47:02.381Z,20.00
2019-05-20T11:49:05.237Z,19.90
2019-05-20T11:51:08.039Z,19.70
2019-05-20T11:53:10.962Z,19.60
2019-05-20T11:55:13.944Z,19.60
2019-05-20T11:57:16.726Z,19.70
2019-05-20T11:59:19.570Z,19.80
2019-05-20T12:01:22.432Z,19.90
2019-05-20T12:03:25.250Z,20.00
2019-05-20T12:05:28.128Z,20.00
2019-05-20T12:07:30.982Z,20.10
2019-05-20T12:09:48.159Z,20.10
2019-05-20T12:11:38.256Z,20.10
2019-05-20T12:13:41.053Z,20.40
2019-05-20T12:15:43.927Z,20.70
2019-05-20T12:17:46.656Z,21.10
2019-05-20T12:19:49.495Z,21.40
2019-05-20T12:21:52.333Z,21.30
2019-05-20T12:23:55.126Z,21.10
2019-05-20T12:25:57.962Z,20.90
2019-05-20T12:28:00.736Z,20.70
2019-05-20T12:30:03.889Z,20.60
2019-05-20T12:32:06.772Z,20.70
2019-05-20T12:34:09.626Z,20.70
2019-05-20T12:36:12.528Z,20.70
2019-05-20T12:38:15.318Z,20.70
2019-05-20T12:40:18.419Z,20.60
2019-05-20T12:42:21.286Z,20.60
2019-05-20T12:44:24.076Z,20.90
2019-05-20T12:46:26.924Z,21.20
2019-05-20T12:48:29.693Z,21.20
2019-05-20T12:50:32.517Z,20.90
2019-05-20T12:52:35.376Z,20.80
2019-05-20T12:54:38.283Z,20.60
2019-05-20T12:56:41.083Z,20.60
2019-05-20T12:58:43.927Z,20.60
2019-05-20T13:00:46.697Z,20.60
2019-05-20T13:02:49.514Z,20.70
2019-05-20T13:04:52.294Z,20.80
2019-05-20T13:06:55.123Z,20.90
2019-05-20T13:08:57.912Z,20.90
2019-05-20T13:11:00.734Z,21.10
2019-05-20T13:13:03.531Z,21.20
2019-05-20T13:15:07.293Z,21.40
2019-05-20T13:17:10.161Z,21.40
2019-05-20T13:19:12.982Z,21.50
2019-05-20T13:21:15.870Z,21.40
2019-05-20T13:23:18.641Z,21.30
2019-05-20T13:25:21.459Z,21.30
2019-05-20T13:27:25.811Z,21.50
2019-05-20T13:29:31.146Z,21.70
2019-05-20T13:31:33.981Z,21.60
2019-05-20T13:33:36.764Z,21.70
2019-05-20T13:35:39.584Z,21.70
2019-05-20T13:37:42.408Z,21.60
2019-05-20T13:39:45.193Z,21.50
2019-05-20T13:41:48.014Z,21.60
2019-05-20T13:43:50.864Z,21.70
2019-05-20T13:45:53.651Z,21.80
2019-05-20T13:47:56.556Z,21.60
2019-05-20T13:49:59.345Z,21.50
2019-05-20T13:52:02.376Z,21.40
2019-05-20T13:54:05.449Z,21.50
2019-05-20T13:56:08.229Z,21.80
2019-05-20T13:58:11.279Z,22.20
2019-05-20T14:00:14.633Z,22.30
2019-05-20T14:02:17.434Z,22.30
2019-05-20T14:04:20.291Z,22.40
2019-05-20T14:06:23.120Z,22.40
2019-05-20T14:08:26.022Z,22.50
2019-05-20T14:10:28.854Z,22.60
2019-05-20T14:12:31.660Z,22.60
2019-05-20T14:14:34.442Z,22.60
2019-05-20T14:16:37.260Z,22.80
2019-05-20T14:18:40.044Z,22.90
2019-05-20T14:20:42.852Z,22.70
2019-05-20T14:22:45.675Z,22.80
2019-05-20T14:24:48.546Z,23.00
2019-05-20T14:26:51.333Z,23.30
2019-05-20T14:28:54.155Z,23.20
2019-05-20T14:30:57.002Z,23.10
2019-05-20T14:32:59.789Z,23.30
2019-05-20T14:35:03.088Z,23.50
2019-05-20T14:37:05.938Z,23.60
2019-05-20T14:39:08.863Z,23.70
2019-05-20T14:41:20.916Z,23.70
2019-05-20T14:43:16.127Z,23.50
2019-05-20T14:45:19.199Z,23.40
2019-05-20T14:47:22.009Z,23.30
2019-05-20T14:49:24.814Z,23.50
2019-05-20T14:51:27.668Z,23.70
2019-05-20T14:53:30.522Z,23.70
2019-05-20T14:55:41.824Z,23.40
2019-05-20T14:57:39.384Z,23.20
2019-05-20T14:59:42.185Z,22.90
2019-05-20T15:01:45.015Z,22.80
2019-05-20T15:03:47.801Z,23.00
2019-05-20T15:05:50.741Z,23.80
2019-05-20T15:07:53.715Z,24.80
2019-05-20T15:09:56.601Z,25.90
2019-05-20T15:11:59.408Z,26.70
2019-05-20T15:14:02.296Z,27.30
2019-05-20T15:16:05.086Z,27.50
2019-05-20T15:18:07.907Z,27.10
2019-05-20T15:20:10.931Z,26.50
2019-05-20T15:22:13.821Z,26.00
2019-05-20T15:24:16.717Z,25.90
2019-05-20T15:26:19.601Z,25.90
2019-05-20T15:28:22.474Z,26.60
2019-05-20T15:30:25.292Z,27.30
2019-05-20T15:32:28.185Z,27.60
2019-05-20T15:34:31.063Z,27.60
2019-05-20T15:36:33.878Z,27.70
2019-05-20T15:38:36.713Z,27.90
2019-05-20T15:40:39.588Z,27.60
2019-05-20T15:42:42.446Z,27.10
2019-05-20T15:44:45.265Z,26.90
2019-05-20T15:46:48.069Z,26.50
2019-05-20T15:48:50.878Z,26.20
2019-05-20T15:50:53.818Z,26.20
2019-05-20T15:52:56.848Z,26.50
2019-05-20T15:54:59.643Z,26.90
2019-05-20T15:57:02.544Z,26.90
2019-05-20T15:59:05.408Z,26.70
2019-05-20T16:01:08.567Z,26.60
2019-05-20T16:03:11.671Z,26.50
2019-05-20T16:05:14.548Z,26.40
2019-05-20T16:07:17.579Z,26.60
2019-05-20T16:09:20.589Z,27.00
2019-05-20T16:11:23.491Z,27.00
2019-05-20T16:13:26.467Z,27.00
2019-05-20T16:15:29.576Z,27.40
2019-05-20T16:17:32.523Z,27.70
2019-05-20T16:19:37.083Z,28.30
2019-05-20T16:21:40.187Z,28.80
2019-05-20T16:23:44.352Z,29.10
2019-05-20T16:25:47.393Z,29.30
2019-05-20T16:27:50.176Z,29.40
2019-05-20T16:30:05.437Z,29.30
2019-05-20T16:31:59.634Z,29.50
2019-05-20T16:34:02.333Z,29.50
2019-05-20T16:36:05.191Z,29.70
2019-05-20T16:38:08.081Z,29.70
2019-05-20T16:40:11.461Z,29.20
2019-05-20T16:42:17.229Z,29.10
2019-05-20T16:44:20.028Z,28.50
2019-05-20T16:46:22.825Z,27.90
2019-05-20T16:48:25.646Z,27.80
2019-05-20T16:50:28.445Z,27.90
2019-05-20T16:52:31.224Z,28.40
2019-05-20T16:54:34.060Z,28.60
2019-05-20T16:56:36.848Z,29.00
2019-05-20T16:58:39.756Z,29.30
2019-05-20T17:00:42.534Z,29.70
2019-05-20T17:02:45.323Z,29.70
2019-05-20T17:04:48.218Z,29.70
2019-05-20T17:06:51.134Z,29.50
2019-05-20T17:08:53.938Z,29.00
2019-05-20T17:10:56.732Z,28.30
2019-05-20T17:12:59.518Z,27.70
2019-05-20T17:15:02.321Z,26.90
2019-05-20T17:17:05.266Z,26.10
2019-05-20T17:19:08.052Z,25.40
2019-05-20T17:21:11.043Z,24.50
2019-05-20T17:23:13.941Z,23.80
2019-05-20T17:25:16.820Z,23.30
2019-05-20T17:27:19.656Z,22.90
2019-05-20T17:29:22.435Z,22.70
2019-05-20T17:31:26.759Z,22.40
2019-05-20T17:33:29.802Z,22.20
2019-05-20T17:35:32.929Z,21.90
2019-05-20T17:37:35.930Z,21.80
2019-05-20T17:39:38.803Z,21.70
2019-05-20T17:41:41.632Z,21.70
2019-05-20T17:43:44.461Z,21.60
2019-05-20T17:45:47.242Z,21.60
2019-05-20T17:47:50.205Z,21.50
2019-05-20T17:49:53.101Z,21.50
2019-05-20T17:51:55.899Z,21.40
2019-05-20T17:53:58.772Z,21.40
2019-05-20T17:56:01.565Z,21.30
2019-05-20T17:58:04.629Z,21.30
2019-05-20T18:00:09.093Z,21.20
2019-05-20T18:02:12.593Z,21.10
2019-05-20T18:04:15.445Z,21.00
2019-05-20T18:06:18.266Z,20.90
2019-05-20T18:08:21.157Z,20.80
2019-05-20T18:10:25.277Z,20.70
2019-05-20T18:12:28.092Z,20.70
2019-05-20T18:14:30.917Z,20.60
2019-05-20T18:16:33.864Z,20.60
2019-05-20T18:18:36.716Z,20.60
2019-05-20T18:20:39.730Z,20.50
2019-05-20T18:22:42.675Z,20.50
2019-05-20T18:24:45.569Z,20.40
2019-05-20T18:26:48.353Z,20.30
2019-05-20T18:28:51.240Z,20.20
2019-05-20T18:30:54.047Z,20.10
2019-05-20T18:32:56.829Z,20.10
2019-05-20T18:35:01.881Z,20.00
2019-05-20T18:37:04.742Z,19.90
2019-05-20T18:39:07.545Z,19.90
2019-05-20T18:41:10.470Z,19.80
2019-05-20T18:43:13.613Z,19.70
2019-05-20T18:45:16.477Z,19.60
2019-05-20T18:47:19.292Z,19.50
2019-05-20T18:49:22.356Z,19.40
2019-05-20T18:51:25.232Z,19.30
2019-05-20T18:53:28.031Z,19.20
2019-05-20T18:55:34.296Z,19.10
2019-05-20T18:57:35.435Z,19.10
2019-05-20T18:59:38.204Z,19.00
2019-05-20T19:01:55.772Z,18.90
2019-05-20T19:03:45.643Z,18.90
2019-05-20T19:05:48.702Z,18.80
2019-05-20T19:07:51.812Z,18.80
2019-05-20T19:09:54.843Z,18.70
2019-05-20T19:11:57.702Z,18.70
2019-05-20T19:14:00.690Z,18.60
2019-05-20T19:16:03.689Z,18.60
2019-05-20T19:18:06.477Z,18.50
2019-05-20T19:20:09.372Z,18.50
2019-05-20T19:22:12.172Z,18.40
2019-05-20T19:24:14.989Z,18.30
2019-05-20T19:26:25.160Z,18.20
2019-05-20T19:28:22.328Z,18.20
2019-05-20T19:30:25.126Z,18.20
2019-05-20T19:32:27.960Z,18.10
2019-05-20T19:34:30.750Z,18.00
2019-05-20T19:36:33.544Z,18.00
2019-05-20T19:38:36.373Z,18.00
2019-05-20T19:40:39.230Z,18.00
2019-05-20T19:42:42.013Z,18.00
2019-05-20T19:44:44.887Z,18.00
2019-05-20T19:46:47.757Z,18.00
2019-05-20T19:48:50.552Z,18.00
2019-05-20T19:50:53.377Z,18.00
2019-05-20T19:52:56.281Z,18.00
2019-05-20T19:54:59.075Z,18.00
2019-05-20T19:57:01.895Z,18.00
2019-05-20T19:59:04.747Z,18.00
2019-05-20T20:01:07.671Z,17.90
2019-05-20T20:03:10.463Z,17.70
2019-05-20T20:05:13.446Z,17.60
2019-05-20T20:07:16.319Z,17.60
2019-05-20T20:09:19.254Z,17.50
2019-05-20T20:11:22.055Z,17.50
2019-05-20T20:13:24.824Z,17.50
2019-05-20T20:15:27.732Z,17.40
2019-05-20T20:17:30.526Z,17.40
2019-05-20T20:19:33.420Z,17.30
2019-05-20T20:21:36.297Z,17.30
2019-05-20T20:23:39.193Z,17.20
2019-05-20T20:25:42.036Z,17.20
2019-05-20T20:27:44.820Z,17.20
2019-05-20T20:29:47.611Z,17.10
2019-05-20T20:31:50.423Z,17.10
2019-05-20T20:33:53.213Z,17.00
2019-05-20T20:35:56.045Z,17.00
2019-05-20T20:37:58.836Z,16.90
2019-05-20T20:40:01.640Z,16.90
2019-05-20T20:42:04.565Z,16.80
2019-05-20T20:44:07.363Z,16.90
2019-05-20T20:46:10.165Z,16.90
2019-05-20T20:48:13.090Z,16.80
2019-05-20T20:50:16.058Z,16.70
2019-05-20T20:52:18.926Z,16.60
2019-05-20T20:54:21.726Z,16.60
2019-05-20T20:56:25.588Z,16.60
2019-05-20T20:58:28.468Z,16.50
2019-05-20T21:00:31.290Z,16.40
2019-05-20T21:02:34.082Z,16.40
2019-05-20T21:04:36.969Z,16.40
2019-05-20T21:06:39.752Z,16.30
2019-05-20T21:08:42.576Z,16.30
2019-05-20T21:10:45.446Z,16.20
2019-05-20T21:12:48.317Z,16.20
2019-05-20T21:14:51.353Z,16.10
2019-05-20T21:16:54.180Z,16.10
2019-05-20T21:18:57.014Z,16.10
2019-05-20T21:20:59.813Z,16.10
2019-05-20T21:23:02.711Z,16.20
2019-05-20T21:25:06.232Z,16.10
2019-05-20T21:27:09.030Z,16.10
2019-05-20T21:29:11.825Z,16.10
2019-05-20T21:31:14.636Z,16.00
2019-05-20T21:33:17.425Z,15.90
2019-05-20T21:35:20.319Z,15.90
2019-05-20T21:37:23.173Z,15.90
2019-05-20T21:39:26.227Z,15.90
2019-05-20T21:41:29.030Z,15.90
2019-05-20T21:43:31.801Z,15.90
2019-05-20T21:45:34.665Z,15.80
2019-05-20T21:47:37.522Z,15.80
2019-05-20T21:49:40.305Z,15.80
2019-05-20T21:51:43.197Z,15.80
2019-05-20T21:53:46.058Z,15.80
2019-05-20T21:55:48.902Z,15.60
2019-05-20T21:57:51.667Z,15.60
2019-05-20T21:59:54.444Z,15.60
2019-05-20T22:01:57.269Z,15.70
2019-05-20T22:04:00.112Z,15.60
2019-05-20T22:06:03.040Z,15.60
2019-05-20T22:08:05.950Z,15.50
2019-05-20T22:10:08.932Z,15.40
2019-05-20T22:12:11.755Z,15.40
2019-05-20T22:14:14.545Z,15.30
2019-05-20T22:16:17.359Z,15.20
2019-05-20T22:18:20.150Z,15.20
2019-05-20T22:20:22.969Z,15.20
2019-05-20T22:22:27.409Z,15.10
2019-05-20T22:24:30.193Z,15.10
2019-05-20T22:26:33.018Z,15.10
2019-05-20T22:28:35.848Z,15.10
2019-05-20T22:30:38.644Z,15.10
2019-05-20T22:32:41.436Z,15.10
2019-05-20T22:34:53.177Z,15.00
2019-05-20T22:36:48.782Z,15.10
2019-05-20T22:38:51.590Z,15.10
2019-05-20T22:40:54.370Z,15.00
2019-05-20T22:42:57.272Z,14.90
2019-05-20T22:45:00.052Z,15.00
2019-05-20T22:47:02.936Z,14.90
2019-05-20T22:49:05.710Z,14.90
2019-05-20T22:51:08.491Z,14.80
2019-05-20T22:53:11.312Z,14.80
2019-05-20T22:55:14.202Z,14.80
2019-05-20T22:57:17.004Z,14.80
2019-05-20T22:59:19.877Z,14.70
2019-05-20T23:01:22.713Z,14.70
2019-05-20T23:03:25.569Z,14.70
2019-05-20T23:05:28.396Z,14.70
2019-05-20T23:07:31.194Z,14.70
2019-05-20T23:09:34.005Z,14.70
2019-05-20T23:11:36.799Z,14.70
2019-05-20T23:13:39.662Z,14.70
2019-05-20T23:15:42.469Z,14.70
2019-05-20T23:17:45.263Z,14.70
2019-05-20T23:19:48.079Z,14.60
2019-05-20T23:21:50.978Z,14.60
2019-05-20T23:23:53.757Z,14.50
2019-05-20T23:25:56.594Z,14.50
2019-05-20T23:27:59.387Z,14.40
2019-05-20T23:30:02.297Z,14.40
2019-05-20T23:32:05.156Z,14.40
2019-05-20T23:34:12.716Z,14.50
2019-05-20T23:36:12.657Z,14.50
2019-05-20T23:38:15.452Z,14.40
2019-05-20T23:40:18.263Z,14.40
2019-05-20T23:42:21.085Z,14.50
2019-05-20T23:44:23.891Z,14.40
2019-05-20T23:46:26.690Z,14.40
2019-05-20T23:48:29.472Z,14.40
2019-05-20T23:50:32.310Z,14.30
2019-05-20T23:52:35.105Z,14.30
2019-05-20T23:54:37.885Z,14.40
2019-05-20T23:56:40.711Z,14.20
2019-05-20T23:58:43.497Z,14.20
